Time;durP1;ratioP1;P1;durP2;ratioP2;P2;SDS_P1;SDS_P2;PMS_P1;PMS_P2;Temp;Humidity;BMP_temperature;BMP_pressure;BME280_temperature;BME280_humidity;BME280_pressure;Samples;Min_cycle;Max_cycle;Signal;HPM_P1;HPM_P2
2024/02/15 00:02:10;;;;;;;;;96.75;81.50;;;;;4.35;100.00;100238.16;6269869;20;3669061;-40
2024/02/15 00:04:40;;;;;;;;;99.33;83.33;;;;;4.29;99.16;100238.31;6303527;20;3693002;-41
2024/02/15 00:07:10;;;;;;;;;106.67;87.33;;;;;4.65;97.58;100230.25;6269750;20;3705458;-40
2024/02/15 00:09:40;;;;;;;;;97.33;79.67;;;;;4.83;97.63;100229.72;6272611;20;3681584;-41
2024/02/15 00:12:09;;;;;;;;;102.67;88.67;;;;;5.28;96.10;100237.22;6270320;20;3680523;-41
2024/02/15 00:14:39;;;;;;;;;96.00;82.33;;;;;5.24;96.14;100238.25;6268804;20;3671116;-41
2024/02/15 00:17:09;;;;;;;;;100.33;77.00;;;;;5.18;98.55;100236.63;6269813;20;3683692;-40
2024/02/15 00:19:42;;;;;;;;;92.75;77.25;;;;;5.24;97.49;100240.91;6276953;20;3672345;-42
2024/02/15 00:22:12;;;;;;;;;89.00;76.00;;;;;5.59;97.06;100247.78;6305518;20;3638851;-41
2024/02/15 00:24:43;;;;;;;;;90.00;75.67;;;;;5.37;97.74;100249.38;6274360;20;3669120;-40
2024/02/15 00:27:13;;;;;;;;;85.00;68.00;;;;;5.50;99.01;100256.03;6308872;20;3636753;-42
2024/02/15 00:29:44;;;;;;;;;95.67;77.33;;;;;5.57;97.94;100259.41;6309839;20;3675375;-41
2024/02/15 00:32:13;;;;;;;;;98.00;86.67;;;;;5.21;100.00;100251.63;6277204;20;3675289;-42
2024/02/15 00:34:43;;;;;;;;;106.33;92.33;;;;;5.08;100.00;100248.47;6276289;20;3682593;-41
2024/02/15 00:37:13;;;;;;;;;102.75;87.50;;;;;5.52;100.00;100253.34;6278797;20;4448309;-41
2024/02/15 00:39:43;;;;;;;;;91.50;77.50;;;;;5.53;100.00;100253.31;6308443;20;3539889;-42
2024/02/15 00:42:12;;;;;;;;;89.00;72.33;;;;;5.20;100.00;100239.25;6305335;20;3663305;-41
2024/02/15 00:44:42;;;;;;;;;93.00;71.00;;;;;5.19;100.00;100243.72;6306693;20;3681600;-41
2024/02/15 00:47:13;;;;;;;;;88.33;66.67;;;;;5.06;100.00;100252.97;6273932;20;3660737;-41
2024/02/15 00:49:42;;;;;;;;;90.67;64.33;;;;;5.05;100.00;100252.13;6306749;20;3655507;-42
2024/02/15 00:52:12;;;;;;;;;87.67;69.33;;;;;4.80;100.00;100248.44;6275381;20;3660804;-41
2024/02/15 00:54:42;;;;;;;;;90.33;75.33;;;;;4.79;100.00;100241.34;6306825;20;3666924;-41
2024/02/15 00:57:11;;;;;;;;;92.00;70.00;;;;;5.12;100.00;100241.28;6274869;20;3673378;-42
2024/02/15 00:59:41;;;;;;;;;99.00;85.00;;;;;5.18;100.00;100228.63;6272771;20;3674275;-41
2024/02/15 01:02:12;;;;;;;;;95.67;77.33;;;;;5.52;100.00;100226.72;6270215;20;3674326;-41
2024/02/15 01:04:42;;;;;;;;;82.33;63.67;;;;;5.67;99.82;100231.56;6273142;20;3614886;-41
2024/02/15 01:07:12;;;;;;;;;80.00;60.00;;;;;5.70;96.66;100236.78;6306964;20;2882121;-40
2024/02/15 01:09:42;;;;;;;;;73.00;58.00;;;;;5.88;95.21;100236.16;6305820;20;2875447;-40
2024/02/15 01:12:12;;;;;;;;;77.00;58.67;;;;;5.54;96.31;100241.72;6307777;20;3635906;-43
2024/02/15 01:14:43;;;;;;;;;90.33;73.33;;;;;4.99;100.00;100238.09;6306225;20;3664910;-41
2024/02/15 01:17:13;;;;;;;;;91.67;70.67;;;;;5.79;97.86;100231.13;6276967;20;3672236;-41
2024/02/15 01:19:43;;;;;;;;;85.33;65.67;;;;;5.91;95.60;100230.72;6273219;20;3655497;-40
2024/02/15 01:22:13;;;;;;;;;81.33;62.00;;;;;5.94;95.55;100233.31;6306453;20;3630588;-40
2024/02/15 01:24:43;;;;;;;;;78.67;58.00;;;;;6.14;93.33;100240.66;6307271;20;3652378;-42
2024/02/15 01:27:12;;;;;;;;;84.67;71.33;;;;;6.08;94.26;100229.31;6307146;20;3651350;-41
2024/02/15 01:29:42;;;;;;;;;107.33;94.67;;;;;6.30;92.82;100234.78;6305676;20;3678619;-40
2024/02/15 01:32:12;;;;;;;;;114.00;98.33;;;;;6.12;92.88;100236.28;6271863;20;3690910;-41
2024/02/15 01:34:41;;;;;;;;;157.00;141.50;;;;;6.11;94.09;100234.56;6266949;20;1963882;-40
2024/02/15 01:37:12;;;;;;;;;131.67;110.00;;;;;5.75;97.12;100234.84;6273890;20;3706543;-39
2024/02/15 01:39:41;;;;;;;;;94.00;78.00;;;;;4.90;100.00;100233.94;6274272;20;3683611;-40
2024/02/15 01:42:11;;;;;;;;;89.67;75.67;;;;;4.88;100.00;100232.25;6276112;20;3659744;-40
2024/02/15 01:44:43;;;;;;;;;95.00;82.33;;;;;4.94;100.00;100235.56;6304767;20;3671098;-40
2024/02/15 01:47:15;;;;;;;;;94.00;75.33;;;;;4.94;100.00;100235.56;6272353;20;3680944;-41
2024/02/15 01:49:45;;;;;;;;;98.00;79.67;;;;;5.35;100.00;100237.91;6277608;20;3689884;-40
2024/02/15 01:52:17;;;;;;;;;95.33;78.00;;;;;5.13;100.00;100243.00;6273944;20;3689855;-40
2024/02/15 01:54:47;;;;;;;;;98.33;76.67;;;;;4.97;100.00;100242.59;6272115;20;3689822;-40
2024/02/15 01:57:18;;;;;;;;;92.00;78.33;;;;;4.93;100.00;100246.28;6274649;20;3658624;-41
2024/02/15 01:59:52;;;;;;;;;88.67;73.00;;;;;5.52;100.00;100256.00;6266658;20;3662744;-40
2024/02/15 02:02:25;;;;;;;;;95.00;76.00;;;;;5.26;100.00;100250.56;6269686;20;3684842;-41
2024/02/15 02:04:55;;;;;;;;;90.67;75.67;;;;;5.19;100.00;100245.50;6269763;20;3649310;-41
2024/02/15 02:07:26;;;;;;;;;95.00;75.00;;;;;5.11;100.00;100243.06;6307967;20;3669017;-40
2024/02/15 02:09:56;;;;;;;;;89.33;74.33;;;;;5.71;100.00;100242.06;6276988;20;3657596;-40
2024/02/15 02:12:27;;;;;;;;;90.67;74.67;;;;;5.79;99.89;100248.91;6272079;20;3675406;-41
2024/02/15 02:14:57;;;;;;;;;93.00;75.67;;;;;5.84;99.63;100246.97;6273452;20;3670063;-41
2024/02/15 02:17:26;;;;;;;;;85.33;71.00;;;;;6.20;96.82;100244.88;6274027;20;3650237;-39
2024/02/15 02:19:57;;;;;;;;;85.67;67.00;;;;;6.16;95.14;100243.25;6308629;20;3657544;-39
2024/02/15 02:22:32;;;;;;;;;89.67;72.33;;;;;6.00;95.56;100247.38;6273396;20;3664550;-40
2024/02/15 02:25:09;;;;;;;;;83.67;63.67;;;;;6.16;94.18;100253.91;6271370;20;3637778;-39
2024/02/15 02:27:39;;;;;;;;;84.67;63.00;;;;;6.11;93.34;100251.41;6305417;20;3635649;-45
2024/02/15 02:30:21;;;;;;;;;86.00;65.33;;;;;5.40;96.46;100250.16;6307129;20;3658670;-42
2024/02/15 02:32:51;;;;;;;;;84.33;64.00;;;;;5.70;97.46;100252.75;6267092;20;3644082;-42
2024/02/15 02:35:21;;;;;;;;;88.67;71.00;;;;;5.83;99.47;100253.22;6304605;20;3681498;-44
2024/02/15 02:37:54;;;;;;;;;83.00;62.67;;;;;5.69;98.84;100254.56;6271257;20;3648172;-43
2024/02/15 02:40:24;;;;;;;;;83.67;66.33;;;;;5.70;98.49;100244.75;6305638;20;3641978;-41
2024/02/15 02:42:56;;;;;;;;;87.00;69.33;;;;;5.87;98.54;100246.88;6305794;20;3667041;-44
2024/02/15 02:45:26;;;;;;;;;80.33;62.00;;;;;5.81;97.55;100245.28;6307553;20;3639847;-40
2024/02/15 02:47:56;;;;;;;;;83.33;63.33;;;;;5.70;96.02;100245.63;6307067;20;3644084;-40
2024/02/15 02:50:26;;;;;;;;;83.00;63.33;;;;;5.71;97.96;100238.50;6276862;20;2892037;-39
2024/02/15 02:52:56;;;;;;;;;85.00;63.00;;;;;5.78;97.47;100236.53;6304430;20;3640878;-40
2024/02/15 02:55:27;;;;;;;;;82.67;63.33;;;;;5.69;97.27;100237.72;6302849;20;3647246;-42
2024/02/15 02:57:56;;;;;;;;;72.50;57.50;;;;;5.98;98.38;100234.09;6304850;20;2858781;-40
2024/02/15 03:00:27;;;;;;;;;82.67;61.00;;;;;5.81;97.85;100221.28;6272082;20;3653454;-40
2024/02/15 03:02:57;;;;;;;;;79.00;62.33;;;;;6.07;96.70;100223.13;6303121;20;3625752;-40
2024/02/15 03:05:29;;;;;;;;;77.33;61.00;;;;;6.12;97.64;100228.28;6302696;20;3627432;-40
2024/02/15 03:07:59;;;;;;;;;74.00;57.33;;;;;5.90;97.32;100218.34;6298477;20;3621092;-41
2024/02/15 03:10:28;;;;;;;;;73.67;58.67;;;;;6.04;97.04;100227.69;6302293;20;2876418;-40
2024/02/15 03:12:58;;;;;;;;;77.33;59.67;;;;;5.94;96.86;100225.31;6303882;20;3642965;-41
2024/02/15 03:15:27;;;;;;;;;74.67;57.00;;;;;5.71;100.00;100225.19;6305279;20;3639975;-41
2024/02/15 03:17:57;;;;;;;;;75.67;57.67;;;;;6.13;97.70;100238.03;6308295;20;3635739;-40
2024/02/15 03:20:27;;;;;;;;;68.33;52.67;;;;;5.97;98.25;100220.81;6307648;20;3627844;-40
2024/02/15 03:22:58;;;;;;;;;67.33;53.00;;;;;6.12;98.04;100226.50;6306038;20;3626317;-39
2024/02/15 03:25:29;;;;;;;;;68.00;54.00;;;;;6.19;96.58;100221.84;6306843;20;3625258;-40
2024/02/15 03:28:02;;;;;;;;;68.33;55.00;;;;;5.82;97.94;100231.06;6306665;20;2883810;-40
2024/02/15 03:30:36;;;;;;;;;76.67;57.33;;;;;5.54;100.00;100230.22;6306758;20;3641948;-41
2024/02/15 03:33:05;;;;;;;;;84.33;64.67;;;;;5.48;100.00;100232.16;6305523;20;3633687;-40
2024/02/15 03:35:37;;;;;;;;;81.67;63.67;;;;;6.21;98.00;100235.09;6303399;20;2886911;-40
2024/02/15 03:38:07;;;;;;;;;88.00;66.50;;;;;5.37;100.00;100234.28;6307728;20;3662866;-41
2024/02/15 03:40:40;;;;;;;;;85.67;63.00;;;;;5.37;100.00;100231.63;6307330;20;3657637;-40
2024/02/15 03:43:10;;;;;;;;;86.67;68.67;;;;;5.35;100.00;100233.47;6307071;20;3672221;-39
2024/02/15 03:45:41;;;;;;;;;84.33;64.33;;;;;5.58;100.00;100239.81;6274540;20;3640930;-40
2024/02/15 03:48:12;;;;;;;;;83.33;63.00;;;;;5.91;100.00;100227.19;6304834;20;3654438;-40
2024/02/15 03:50:42;;;;;;;;;85.00;63.67;;;;;5.90;100.00;100231.66;6307445;20;3644022;-40
2024/02/15 03:53:11;;;;;;;;;82.00;61.33;;;;;5.84;99.28;100239.84;6305189;20;3634722;-40
2024/02/15 03:55:42;;;;;;;;;85.33;66.33;;;;;5.55;100.00;100235.47;6302352;20;3650355;-40
2024/02/15 03:58:14;;;;;;;;;85.67;68.67;;;;;5.80;100.00;100234.69;6305041;20;3649231;-40
2024/02/15 04:00:44;;;;;;;;;86.33;69.67;;;;;5.79;99.71;100240.91;6271029;20;3653433;-39
2024/02/15 04:03:14;;;;;;;;;81.33;65.33;;;;;5.84;99.55;100237.19;6299862;20;3624374;-40
2024/02/15 04:05:43;;;;;;;;;85.33;66.00;;;;;5.33;100.00;100234.41;6301391;20;3645074;-40
2024/02/15 04:08:16;;;;;;;;;83.33;64.67;;;;;5.07;100.00;100239.63;6306034;20;3634155;-39
2024/02/15 04:10:45;;;;;;;;;80.33;62.33;;;;;5.09;100.00;100242.25;6306716;20;3615907;-40
2024/02/15 04:13:18;;;;;;;;;86.00;66.67;;;;;5.19;100.00;100237.53;6304991;20;3653454;-39
2024/02/15 04:15:49;;;;;;;;;82.33;66.00;;;;;5.04;100.00;100234.38;6270815;20;3636703;-40
2024/02/15 04:18:19;;;;;;;;;79.00;62.33;;;;;5.16;100.00;100226.94;6303323;20;3632534;-41
2024/02/15 04:20:51;;;;;;;;;89.33;64.00;;;;;5.37;100.00;100231.63;6303971;20;3656500;-41
2024/02/15 04:23:21;;;;;;;;;83.67;62.33;;;;;5.03;100.00;100230.00;6300058;20;3661729;-40
2024/02/15 04:25:51;;;;;;;;;82.00;63.00;;;;;5.48;100.00;100232.16;6271979;20;3614831;-40
2024/02/15 04:28:21;;;;;;;;;80.00;63.00;;;;;5.36;100.00;100234.31;6304185;20;3634785;-39
2024/02/15 04:30:51;;;;;;;;;83.67;62.67;;;;;5.58;100.00;100226.50;6303408;20;3657553;-39
2024/02/15 04:33:21;;;;;;;;;84.33;62.00;;;;;5.52;100.00;100229.38;6303081;20;3638308;-41
2024/02/15 04:35:51;;;;;;;;;82.00;61.67;;;;;5.43;100.00;100236.75;6302276;20;3649202;-40
2024/02/15 04:38:21;;;;;;;;;86.67;65.33;;;;;4.93;100.00;100240.97;6303854;20;3644234;-40
2024/02/15 04:40:51;;;;;;;;;87.00;66.33;;;;;4.66;100.00;100226.66;6304337;20;3663818;-41
2024/02/15 04:43:20;;;;;;;;;86.33;65.33;;;;;5.02;100.00;100233.56;6301763;20;3642550;-40
2024/02/15 04:45:51;;;;;;;;;83.67;64.33;;;;;5.44;100.00;100232.28;6301078;20;3651407;-44
2024/02/15 04:48:21;;;;;;;;;83.00;63.33;;;;;5.50;100.00;100238.31;6304530;20;3633604;-43
2024/02/15 04:50:52;;;;;;;;;108.33;103.33;;;;;5.32;100.00;100236.22;6305706;20;3686729;-43
2024/02/15 04:53:21;;;;;;;;;102.00;86.33;;;;;5.27;100.00;100230.16;6274166;20;3689851;-44
2024/02/15 04:55:51;;;;;;;;;100.75;87.75;;;;;4.86;100.00;100229.63;6274009;20;4440854;-43
2024/02/15 04:58:21;;;;;;;;;91.33;77.33;;;;;4.92;100.00;100237.41;6305084;20;3653386;-43
2024/02/15 05:00:54;;;;;;;;;83.33;67.33;;;;;4.83;100.00;100235.03;6302532;20;3642020;-44
2024/02/15 05:03:24;;;;;;;;;85.33;67.33;;;;;4.48;100.00;100244.03;6301031;20;3645041;-44
2024/02/15 05:05:53;;;;;;;;;77.00;53.67;;;;;5.19;100.00;100248.16;6304882;20;3633605;-44
2024/02/15 05:08:23;;;;;;;;;87.00;68.00;;;;;4.46;100.00;100249.38;6306037;20;3647117;-44
2024/02/15 05:10:56;;;;;;;;;88.00;64.67;;;;;5.17;100.00;100250.88;6309998;20;3638940;-45
2024/02/15 05:13:26;;;;;;;;;82.67;64.67;;;;;4.79;100.00;100254.63;6306520;20;3643214;-44
2024/02/15 05:15:56;;;;;;;;;82.67;65.67;;;;;4.66;100.00;100253.25;6305303;20;3632628;-44
2024/02/15 05:18:25;;;;;;;;;86.00;66.00;;;;;4.69;100.00;100258.50;6307974;20;3652364;-43
2024/02/15 05:20:55;;;;;;;;;94.00;79.00;;;;;5.10;100.00;100256.41;6306226;20;3676427;-45
2024/02/15 05:23:25;;;;;;;;;89.33;70.00;;;;;5.27;100.00;100252.34;6275179;20;3652446;-44
2024/02/15 05:25:56;;;;;;;;;87.33;72.00;;;;;4.82;100.00;100260.78;6306329;20;3656528;-44
2024/02/15 05:28:26;;;;;;;;;81.00;66.00;;;;;5.49;100.00;100252.53;6309820;20;2881664;-47
2024/02/15 05:31:20;;;;;;;;;83.00;64.33;;;;;5.15;100.00;100257.16;6310555;20;3635729;-44
2024/02/15 05:33:51;;;;;;;;;86.00;67.00;;;;;5.07;100.00;100255.56;6306455;20;3645067;-45
2024/02/15 05:36:22;;;;;;;;;83.00;63.33;;;;;5.25;100.00;100263.94;6307857;20;3632638;-45
2024/02/15 05:38:54;;;;;;;;;79.33;60.67;;;;;5.50;100.00;100270.25;6309292;20;3632985;-47
2024/02/15 05:41:24;;;;;;;;;78.33;59.67;;;;;5.06;100.00;100264.50;6310221;20;3641937;-45
2024/02/15 05:43:53;;;;;;;;;45.50;36.50;;;;;5.34;100.00;100258.31;6307108;20;2846129;-46
2024/02/15 05:46:22;;;;;;;;;90.33;75.00;;;;;5.70;100.00;100271.41;6278134;20;3649241;-44
2024/02/15 05:48:52;;;;;;;;;85.67;64.33;;;;;5.61;100.00;100267.25;6307265;20;3646128;-45
2024/02/15 05:51:23;;;;;;;;;79.67;60.00;;;;;5.12;100.00;100274.09;6310239;20;3638849;-45
2024/02/15 05:53:58;;;;;;;;;76.00;60.00;;;;;5.20;100.00;100276.53;6307090;20;3620063;-44
2024/02/15 05:56:29;;;;;;;;;79.67;61.33;;;;;5.43;100.00;100275.81;6308815;20;3629445;-43
2024/02/15 05:58:59;;;;;;;;;85.33;62.33;;;;;5.72;100.00;100285.56;6308573;20;3642345;-44
2024/02/15 06:01:29;;;;;;;;;77.00;61.00;;;;;5.71;100.00;100275.81;6307874;20;3620079;-44
2024/02/15 06:04:00;;;;;;;;;79.33;61.67;;;;;5.64;99.31;100279.59;6308983;20;3636782;-45
2024/02/15 06:06:29;;;;;;;;;80.00;60.00;;;;;5.28;100.00;100275.34;6308644;20;2814879;-45
2024/02/15 06:09:00;;;;;;;;;82.33;62.33;;;;;5.19;100.00;100282.78;6279037;20;3637836;-45
2024/02/15 06:11:30;;;;;;;;;84.00;62.33;;;;;5.44;100.00;100281.09;6310452;20;3648258;-45
2024/02/15 06:14:00;;;;;;;;;82.33;64.00;;;;;5.86;100.00;100288.63;6305416;20;3629482;-44
2024/02/15 06:16:29;;;;;;;;;87.00;63.67;;;;;5.97;100.00;100284.78;6307605;20;3647153;-45
2024/02/15 06:18:59;;;;;;;;;94.00;79.00;;;;;5.85;100.00;100296.69;6308342;20;3669146;-44
2024/02/15 06:21:29;;;;;;;;;83.33;67.33;;;;;5.38;100.00;100302.59;6273328;20;3649254;-43
2024/02/15 06:23:57;;;;;;;;;139.50;118.00;;;;;4.86;100.00;100304.09;6301464;20;1970276;-45
2024/02/15 06:26:28;;;;;;;;;87.67;72.33;;;;;4.98;100.00;100308.22;6275769;20;3651330;-45
2024/02/15 06:40:28;;;;;;;;;89.33;71.67;;;;;4.84;100.00;100314.81;6307449;20;3651316;-44
2024/02/15 06:42:58;;;;;;;;;85.33;64.00;;;;;4.87;100.00;100315.63;6274876;20;2884771;-44
2024/02/15 06:45:31;;;;;;;;;89.33;68.33;;;;;4.82;100.00;100319.28;6308660;20;3659731;-44
2024/02/15 06:48:01;;;;;;;;;89.00;71.00;;;;;5.13;100.00;100314.88;6300156;20;3649213;-44
2024/02/15 06:50:31;;;;;;;;;83.00;64.67;;;;;5.01;100.00;100321.44;6307647;20;2880601;-45
2024/02/15 06:53:01;;;;;;;;;83.67;64.00;;;;;4.84;100.00;100327.22;6308526;20;3641907;-46
2024/02/15 06:55:31;;;;;;;;;85.33;67.33;;;;;5.08;100.00;100325.66;6305811;20;3646164;-44
2024/02/15 06:58:01;;;;;;;;;80.33;63.67;;;;;4.71;100.00;100324.00;6307471;20;3636782;-44
2024/02/15 07:00:30;;;;;;;;;84.33;64.33;;;;;4.83;100.00;100325.47;6307278;20;3635686;-45
2024/02/15 07:03:00;;;;;;;;;83.67;66.67;;;;;4.83;100.00;100325.47;6305292;20;3626487;-46
2024/02/15 07:05:30;;;;;;;;;84.00;64.33;;;;;5.64;100.00;100332.88;6309087;20;3620074;-44
2024/02/15 07:08:00;;;;;;;;;83.67;66.00;;;;;5.82;100.00;100334.97;6308002;20;3631519;-43
2024/02/15 07:10:30;;;;;;;;;81.67;62.67;;;;;5.71;100.00;100327.31;6307299;20;3648186;-44
2024/02/15 07:13:00;;;;;;;;;78.00;60.00;;;;;6.05;99.31;100341.38;6306639;20;3629437;-47
2024/02/15 07:15:32;;;;;;;;;80.67;60.67;;;;;5.90;99.14;100348.94;6306563;20;3653447;-44
2024/02/15 07:18:01;;;;;;;;;82.50;64.00;;;;;5.16;100.00;100334.31;6306808;20;2881665;-44
2024/02/15 07:20:32;;;;;;;;;82.00;63.33;;;;;5.01;100.00;100330.28;6275819;20;3634658;-43
2024/02/15 07:23:03;;;;;;;;;79.00;62.00;;;;;5.36;100.00;100333.72;6300222;20;3609846;-44
2024/02/15 07:25:32;;;;;;;;;81.00;59.00;;;;;5.86;100.00;100341.94;6306141;20;2766061;-45
2024/02/15 07:28:02;;;;;;;;;76.00;58.33;;;;;5.70;100.00;100327.34;6273642;20;3650259;-45
2024/02/15 07:30:31;;;;;;;;;78.67;61.00;;;;;5.17;100.00;100327.19;6299565;20;3637750;-43
2024/02/15 07:33:02;;;;;;;;;81.00;60.00;;;;;5.93;100.00;100332.88;6304276;20;3653771;-44
2024/02/15 07:35:33;;;;;;;;;81.67;61.00;;;;;6.17;97.70;100351.66;6307409;20;3640920;-43
2024/02/15 07:38:05;;;;;;;;;74.50;60.50;;;;;6.40;95.99;100340.22;6305401;20;2871137;-43
2024/02/15 07:40:35;;;;;;;;;82.67;62.00;;;;;6.27;94.98;100358.44;6273433;20;3642996;-43
2024/02/15 07:43:06;;;;;;;;;86.33;68.67;;;;;6.19;96.34;100355.16;6307556;20;3659723;-42
2024/02/15 07:45:37;;;;;;;;;81.67;62.00;;;;;6.22;95.45;100344.38;6307635;20;3645047;-39
2024/02/15 07:48:07;;;;;;;;;80.00;61.00;;;;;6.23;94.54;100356.78;6307943;20;3646158;-39
2024/02/15 07:56:08;;;;;;;;;;;;;;;;;;;;;
2024/02/15 07:59:52;;;;;;;;;78.00;61.00;;;;;5.85;100.00;100358.84;6309921;20;3634804;-40
2024/02/15 08:04:08;;;;;;;;;85.00;63.33;;;;;5.81;98.65;100364.31;6307683;20;3678303;-39
2024/02/15 08:07:31;;;;;;;;;79.33;62.33;;;;;6.19;97.52;100367.56;6309276;20;3627546;-44
2024/02/15 08:11:26;;;;;;;;;84.33;63.00;;;;;6.03;100.00;100354.78;6312683;20;3658791;-42
2024/02/15 08:15:12;;;;;;;;;78.00;60.67;;;;;5.43;100.00;100359.25;6305203;20;3627365;-40
2024/02/15 08:19:05;;;;;;;;;75.67;57.00;;;;;6.34;95.03;100359.94;6304890;20;3638991;-41
2024/02/15 08:22:46;;;;;;;;;69.00;57.33;;;;;5.96;97.65;100363.88;6309738;20;3613839;-41
2024/02/15 08:26:19;;;;;;;;;73.33;58.00;;;;;6.04;93.33;100363.63;6279085;20;3621198;-42
2024/02/15 08:29:23;;;;;;;;;75.67;58.00;;;;;5.33;98.95;100363.09;6305132;20;3634654;-45
2024/02/15 08:32:14;;;;;;;;;80.00;60.00;;;;;5.72;97.18;100366.34;6306337;20;3653442;-44
2024/02/15 08:35:05;;;;;;;;;73.33;59.00;;;;;5.28;100.00;100359.69;6304248;20;3627341;-44
2024/02/15 08:37:55;;;;;;;;;67.33;55.67;;;;;6.20;95.82;100372.88;6306175;20;2872234;-45
2024/02/15 08:40:47;;;;;;;;;77.33;60.00;;;;;5.41;96.01;100366.41;6308604;20;3644242;-45
2024/02/15 08:43:39;;;;;;;;;74.33;57.33;;;;;6.00;95.70;100368.16;6311055;20;3630500;-44
2024/02/15 08:46:29;;;;;;;;;83.00;64.67;;;;;6.31;92.42;100368.06;6312739;20;3641000;-44
2024/02/15 08:49:19;;;;;;;;;74.00;57.33;;;;;6.66;90.81;100365.13;6310546;20;3632594;-44
2024/02/15 08:52:08;;;;;;;;;74.67;58.00;;;;;6.32;92.95;100363.63;6311132;20;3635722;-43
2024/02/15 08:55:00;;;;;;;;;74.33;58.67;;;;;5.84;95.43;100359.75;6309643;20;3636764;-44
2024/02/15 08:57:50;;;;;;;;;78.67;59.67;;;;;6.61;93.63;100362.63;6310166;20;3636776;-44
2024/02/15 09:00:44;;;;;;;;;75.67;59.00;;;;;5.63;96.54;100360.41;6310744;20;3624318;-44
2024/02/15 09:03:34;;;;;;;;;78.00;57.33;;;;;5.95;97.85;100356.81;6309761;20;3645141;-45
2024/02/15 09:06:24;;;;;;;;;82.33;61.67;;;;;6.64;94.11;100370.53;6309882;20;3654544;-43
2024/02/15 09:08:54;;;;;;;;;74.67;57.67;;;;;6.47;93.69;100372.88;6308954;20;3637782;-45
2024/02/15 09:11:29;;;;;;;;;78.33;58.67;;;;;6.76;91.17;100372.75;6309391;20;3647122;-44
2024/02/15 09:13:59;;;;;;;;;76.33;59.67;;;;;6.62;90.31;100369.69;6310780;20;3637780;-47
2024/02/15 09:16:31;;;;;;;;;76.00;59.00;;;;;6.46;92.82;100374.69;6309647;20;3637809;-44
2024/02/15 09:19:01;;;;;;;;;75.67;60.00;;;;;6.62;92.00;100375.03;6307289;20;2873349;-45
2024/02/15 09:21:33;;;;;;;;;85.67;63.67;;;;;6.72;93.10;100375.59;6308709;20;3661698;-47
2024/02/15 09:24:03;;;;;;;;;76.67;58.33;;;;;6.30;97.14;100363.66;6274671;20;3627374;-46
2024/02/15 09:26:33;;;;;;;;;77.00;58.00;;;;;6.47;95.87;100364.88;6311387;20;3644037;-49
2024/02/15 09:29:02;;;;;;;;;74.33;59.00;;;;;6.32;94.30;100367.16;6311806;20;3606549;-45
2024/02/15 09:31:36;;;;;;;;;78.33;59.67;;;;;6.20;95.23;100359.53;6308731;20;3630472;-42
2024/02/15 09:34:06;;;;;;;;;80.33;60.33;;;;;6.09;96.20;100367.91;6310880;20;3656520;-41
2024/02/15 09:36:39;;;;;;;;;79.67;59.33;;;;;6.63;93.88;100360.75;6279434;20;3643015;-41
2024/02/15 09:39:13;;;;;;;;;73.00;58.67;;;;;6.43;94.87;100369.47;6310076;20;3620378;-43
2024/02/15 09:41:43;;;;;;;;;78.33;58.33;;;;;6.43;95.11;100363.25;6310858;20;3652385;-41
2024/02/15 09:44:13;;;;;;;;;73.00;56.67;;;;;7.02;93.14;100355.81;6273996;20;2884886;-42
2024/02/15 09:46:47;;;;;;;;;75.33;58.33;;;;;7.18;92.58;100361.47;6308339;20;3631667;-42
2024/02/15 09:49:17;;;;;;;;;78.00;59.00;;;;;7.05;91.90;100362.84;6308206;20;3655456;-41
2024/02/15 09:51:49;;;;;;;;;78.67;61.00;;;;;6.93;92.91;100357.97;6274054;20;2886853;-43
2024/02/15 09:54:22;;;;;;;;;74.00;59.00;;;;;6.86;91.73;100362.63;6306253;20;2864937;-42
2024/02/15 09:56:53;;;;;;;;;73.00;55.00;;;;;7.08;92.11;100362.72;6306352;20;3639853;-42
2024/02/15 09:59:23;;;;;;;;;73.00;54.00;;;;;7.20;91.30;100367.63;6309433;20;3637782;-42
2024/02/15 10:01:59;;;;;;;;;69.67;55.33;;;;;7.18;90.32;100363.25;6272908;20;2859655;-42
2024/02/15 10:04:29;;;;;;;;;75.00;56.67;;;;;7.35;89.87;100366.19;6309794;20;3628427;-42
2024/02/15 10:06:58;;;;;;;;;72.33;56.67;;;;;7.01;91.81;100363.88;6310829;20;3628436;-41
2024/02/15 10:09:30;;;;;;;;;74.00;57.00;;;;;7.08;91.32;100367.19;6310786;20;3630519;-41
2024/02/15 10:12:01;;;;;;;;;71.67;56.67;;;;;6.87;92.55;100361.69;6307871;20;3628432;-44
2024/02/15 10:14:31;;;;;;;;;72.33;58.00;;;;;7.33;90.15;100362.69;6307584;20;2865124;-42
2024/02/15 10:17:11;;;;;;;;;71.00;56.00;;;;;7.54;89.00;100366.38;6310668;20;3615914;-42
2024/02/15 10:20:06;;;;;;;;;75.67;58.33;;;;;7.57;89.01;100371.59;6311098;20;3624285;-43
2024/02/15 10:22:36;;;;;;;;;74.00;57.00;;;;;7.12;90.83;100369.69;6278802;20;3629512;-42
2024/02/15 10:25:15;;;;;;;;;82.67;63.33;;;;;7.21;92.01;100365.81;6307966;20;3649263;-41
2024/02/15 10:27:45;;;;;;;;;82.67;65.33;;;;;7.25;91.34;100368.31;6276860;20;3650279;-41
2024/02/15 10:30:19;;;;;;;;;78.33;61.33;;;;;7.51;89.60;100361.13;6274553;20;3632536;-41
2024/02/15 10:32:49;;;;;;;;;76.00;59.00;;;;;7.67;89.14;100361.41;6308812;20;3623250;-41
2024/02/15 10:35:22;;;;;;;;;76.33;60.00;;;;;7.85;90.83;100357.16;6308442;20;3635699;-42
2024/02/15 10:37:52;;;;;;;;;72.33;57.00;;;;;7.55;89.77;100362.75;6309114;20;2860826;-44
2024/02/15 10:40:23;;;;;;;;;72.00;56.00;;;;;7.72;89.91;100358.59;6306188;20;3614845;-45
2024/02/15 10:42:56;;;;;;;;;72.00;56.33;;;;;7.81;88.39;100353.72;6309265;20;3618116;-46
2024/02/15 10:45:26;;;;;;;;;73.67;57.67;;;;;7.86;87.44;100354.41;6307829;20;3631523;-44
2024/02/15 10:47:57;;;;;;;;;67.67;53.00;;;;;8.35;84.83;100351.56;6306801;20;3630581;-44
2024/02/15 10:50:26;;;;;;;;;64.67;49.33;;;;;7.60;87.38;100354.56;6309952;20;3627951;-44
2024/02/15 10:53:00;;;;;;;;;68.33;54.00;;;;;7.62;87.92;100347.38;6305768;20;3614828;-45
2024/02/15 10:56:01;;;;;;;;;69.00;53.67;;;;;7.84;87.41;100342.03;6306514;20;3617991;-45
2024/02/15 10:58:50;;;;;;;;;74.00;57.00;;;;;8.05;87.23;100346.50;6309444;20;3644049;-41
2024/02/15 11:01:24;;;;;;;;;65.33;50.67;;;;;8.27;84.19;100346.53;6308457;20;2868201;-41
2024/02/15 11:04:08;;;;;;;;;69.33;54.00;;;;;8.07;85.33;100344.66;6306947;20;3634652;-41
2024/02/15 11:06:43;;;;;;;;;69.33;55.00;;;;;8.21;83.92;100344.09;6308926;20;3630966;-41
2024/02/15 11:09:15;;;;;;;;;66.00;51.67;;;;;8.18;83.62;100343.34;6309245;20;3630578;-40
2024/02/15 11:11:46;;;;;;;;;68.00;53.67;;;;;8.23;82.87;100338.69;6309015;20;3629589;-40
2024/02/15 11:14:31;;;;;;;;;68.33;54.67;;;;;8.55;81.49;100348.06;6308105;20;3622230;-41
2024/02/15 11:17:06;;;;;;;;;66.00;50.67;;;;;8.53;81.73;100342.78;6310774;20;3629453;-41
2024/02/15 11:19:35;;;;;;;;;71.33;56.33;;;;;8.52;82.79;100341.03;6307904;20;2877422;-40
2024/02/15 11:22:11;;;;;;;;;71.33;55.00;;;;;8.86;82.55;100344.06;6308854;20;3614829;-41
2024/02/15 11:24:52;;;;;;;;;67.33;53.67;;;;;9.27;79.72;100333.28;6307865;20;3621128;-41
2024/02/15 11:27:31;;;;;;;;;68.00;54.67;;;;;9.00;79.05;100330.91;6307057;20;2868008;-41
2024/02/15 11:30:04;;;;;;;;;61.00;50.00;;;;;8.74;80.19;100335.66;6310836;20;3620091;-41
2024/02/15 11:33:03;;;;;;;;;63.67;51.67;;;;;9.23;78.23;100335.25;6277376;20;3620044;-41
2024/02/15 11:35:34;;;;;;;;;68.00;53.00;;;;;9.46;77.57;100339.56;6308856;20;3612740;-41
2024/02/15 11:38:09;;;;;;;;;59.67;46.00;;;;;9.01;78.09;100328.19;6308080;20;3620131;-42
2024/02/15 11:40:42;;;;;;;;;64.00;48.67;;;;;9.05;78.92;100338.75;6305590;20;3634760;-42
2024/02/15 11:43:54;;;;;;;;;64.00;51.00;;;;;8.99;79.86;100335.41;6308601;20;3627345;-41
2024/02/15 11:46:32;;;;;;;;;65.00;51.00;;;;;9.25;79.55;100329.84;6308047;20;2741116;-42
2024/02/15 11:49:03;;;;;;;;;65.33;51.33;;;;;9.53;77.16;100334.75;6308981;20;3625299;-41
2024/02/15 11:51:47;;;;;;;;;69.33;53.00;;;;;9.52;76.65;100333.03;6305835;20;3620138;-42